Latest Weather Observations for Brisbane Airport

IDQ60801

Issued at 6:35 pm EST Wednesday 27 August 2014 (issued every 30 minutes, with the page automatically refreshed every 10 minutes)

About weather observations | Map of weather stations | Latest weather observations for QLD | Other Formats
Station Details ID: 040842 Name: BRISBANE AERO Lat: -27.39 Lon: 153.13 Height: 4.51 m
Data from the previous 72 hours. | See also: Recent months at Brisbane Airport
Date/Time
EST
Temp
°C
App
Temp
°C
Dew
Point
Rel
Hum
%
Delta-T
°C
Wind Press
QNH
hPa
Press
MSL
hPa
Rain
since 9 am
mm
Dir
 
Spd
km/h
Gust
km/h
Spd
kts
Gust
kts
27/06:30pm 13.8 9.6 11.0 83 1.5 WSW 24 32 13 17 1014.3 - 4.8
27/06:00pm 13.7 8.7 11.0 84 1.4 WSW 28 33 15 18 1014.0 1014.0 4.8
27/05:30pm 13.9 9.7 11.1 83 1.5 WSW 24 32 13 17 1014.3 - 4.8
27/05:00pm 14.1 10.0 12.8 92 0.7 WSW 26 33 14 18 1014.4 - 4.8
27/04:30pm 13.8 8.8 12.3 91 0.8 WSW 30 35 16 19 1014.1 - 4.2
27/04:00pm 13.7 7.0 12.2 91 0.8 WSW 39 50 21 27 1013.4 - 1.6
27/03:38pm 17.3 7.4 8.1 54 4.7 SW 50 59 27 32 1013.0 - 0.0
27/03:30pm 20.6 17.2 7.8 43 6.6 SSW 15 26 8 14 1012.5 - 0.0
27/03:00pm 20.9 17.2 7.8 42 6.8 SSW 17 26 9 14 1012.0 1012.0 0.0
27/02:30pm 20.9 16.6 7.2 41 7.0 S 19 32 10 17 1012.3 - 0.0
27/02:00pm 21.1 17.1 9.0 46 6.4 S 20 33 11 18 1012.4 - 0.0
27/01:30pm 23.4 19.0 7.3 35 8.4 SSW 20 28 11 15 1012.5 - 0.0
27/01:00pm 22.8 18.6 7.4 37 8.0 WSW 19 24 10 13 1013.1 - 0.0
27/12:30pm 22.7 18.3 7.5 37 7.9 WSW 20 28 11 15 1013.7 - 0.0
27/12:00pm 21.6 16.8 7.5 40 7.3 SSW 22 35 12 19 1014.2 1014.2 0.0
27/11:30am 21.1 17.1 9.0 46 6.4 SSW 20 26 11 14 1014.8 - 0.0
27/11:00am 20.5 16.4 8.7 46 6.2 SSW 20 32 11 17 1015.3 - 0.0
27/10:30am 20.5 17.4 10.3 52 5.5 SW 17 28 9 15 1015.7 - 0.0
27/10:00am 19.5 16.1 10.4 55 4.9 SW 19 28 10 15 1016.0 - 0.0
27/09:30am 19.4 16.1 10.9 58 4.6 SW 19 26 10 14 1016.2 - 0.0
27/09:00am 18.2 14.6 10.6 61 4.1 SSW 20 28 11 15 1016.2 1016.2 0.0
27/08:30am 17.6 13.0 10.9 65 3.6 SW 26 32 14 17 1016.0 - 0.0
27/08:00am 17.1 12.9 11.0 67 3.3 SW 24 32 13 17 1015.9 - 0.0
27/07:30am 16.0 12.8 11.1 72 2.6 SW 19 28 10 15 1015.7 - 0.0
27/07:00am 14.6 12.2 11.4 81 1.7 SW 15 19 8 10 1015.4 - 0.0
27/06:30am 12.8 11.0 10.7 87 1.1 W 11 17 6 9 1015.0 - 0.0
27/06:00am 10.9 8.7 9.3 90 0.8 SW 11 13 6 7 1014.6 1014.6 0.0
27/05:30am 13.5 12.0 10.4 81 1.6 S 9 11 5 6 1014.3 - 0.0
27/05:00am 11.9 10.5 9.7 86 1.1 SSW 7 9 4 5 1014.3 - 0.0
27/04:30am 13.9 12.0 10.5 80 1.8 SSW 11 13 6 7 1014.4 - 0.0
27/04:00am 12.6 11.5 10.5 87 1.1 SW 7 9 4 5 1014.6 - 0.0
27/03:30am 13.2 11.3 10.5 84 1.4 SW 11 15 6 8 1014.6 - 0.0
27/03:00am 12.4 9.6 10.1 86 1.2 SW 15 19 8 10 1015.0 1015.0 0.0
27/02:30am 12.5 9.5 10.6 88 1.0 SW 17 19 9 10 1015.4 - 0.0
27/02:00am 13.1 10.5 10.8 86 1.2 WSW 15 24 8 13 1015.7 - 0.0
27/01:30am 12.7 10.9 10.8 88 1.0 SW 11 17 6 9 1015.8 - 0.0
27/01:00am 12.7 10.1 10.6 87 1.1 SSW 15 17 8 9 1015.9 - 0.0
27/12:30am 15.0 13.6 10.8 76 2.2 S 9 13 5 7 1016.0 - 0.0
27/12:00am 14.8 13.0 11.0 78 2.0 SSW 11 13 6 7 1016.1 1016.1 0.0
 
Date/Time
EST
Temp
°C
App
Temp
°C
Dew
Point
Rel
Hum
%
Delta-T
°C
Wind Press
QNH
hPa
Press
MSL
hPa
Rain
since 9 am
mm
Dir
 
Spd
km/h
Gust
km/h
Spd
kts
Gust
kts
26/11:30pm 15.3 13.2 11.0 75 2.3 SSW 13 17 7 9 1016.4 - 0.0
26/11:00pm 14.8 12.3 11.2 79 1.9 SSW 15 17 8 9 1016.5 - 0.0
26/10:30pm 14.1 11.6 11.1 82 1.6 SSW 15 19 8 10 1016.6 - 0.0
26/10:00pm 15.9 14.3 11.6 75 2.3 S 11 15 6 8 1016.6 - 0.0
26/09:30pm 16.4 14.6 12.0 75 2.4 SSW 13 17 7 9 1016.9 - 0.0
26/09:00pm 16.8 15.0 12.2 74 2.5 S 13 20 7 11 1016.9 1016.9 0.0
26/08:30pm 17.5 15.7 12.2 71 2.9 SSE 13 22 7 12 1016.8 - 0.0
26/08:00pm 17.9 16.5 12.3 70 3.1 SSE 11 19 6 10 1016.7 - 0.0
26/07:30pm 18.2 16.2 12.6 70 3.1 SE 15 28 8 15 1016.4 - 0.0
26/07:00pm 18.4 16.3 12.5 68 3.3 SE 15 26 8 14 1016.1 - 0.0
26/06:30pm 18.8 16.2 12.1 65 3.7 SE 17 28 9 15 1015.9 - 0.0
26/06:00pm 19.0 17.3 12.6 66 3.6 SE 13 26 7 14 1015.6 1015.6 0.0
26/05:30pm 19.1 16.6 13.5 70 3.2 ESE 19 32 10 17 1015.2 - 0.0
26/05:00pm 19.7 17.4 13.0 65 3.8 ESE 17 26 9 14 1014.9 - 0.0
26/04:30pm 20.2 17.8 12.6 61 4.3 ESE 17 28 9 15 1014.7 - 0.0
26/04:00pm 20.4 18.0 13.8 66 3.8 ESE 19 26 10 14 1014.5 - 0.0
26/03:30pm 21.0 18.4 12.1 56 5.0 ESE 17 26 9 14 1014.5 - 0.0
26/03:00pm 21.4 18.1 9.7 47 6.3 E 17 28 9 15 1014.4 1014.4 0.0
26/02:30pm 21.4 18.3 11.7 54 5.4 ESE 19 26 10 14 1014.5 - 0.0
26/02:00pm 21.8 18.4 10.7 49 6.1 ESE 19 30 10 16 1014.8 - 0.0
26/01:30pm 21.0 18.4 11.9 56 5.1 ESE 17 26 9 14 1015.2 - 0.0
26/01:00pm 20.2 16.5 11.5 57 4.8 ESE 22 37 12 20 1015.6 - 0.0
26/12:30pm 20.4 17.4 12.4 60 4.5 ESE 20 35 11 19 1016.1 - 0.0
26/12:00pm 21.0 18.8 10.8 52 5.6 S 13 22 7 12 1016.6 1016.6 0.0
26/11:30am 21.0 18.9 11.0 52 5.5 SSE 13 20 7 11 1017.0 - 0.0
26/11:00am 21.2 18.0 11.2 53 5.5 S 19 26 10 14 1017.4 - 0.0
26/10:30am 20.8 17.9 10.9 53 5.4 S 17 24 9 13 1017.7 - 0.0
26/10:00am 19.8 16.8 10.8 56 4.9 SSW 17 24 9 13 1017.9 - 0.0
26/09:30am 19.0 15.1 10.9 59 4.4 SSW 22 30 12 16 1018.2 - 0.0
26/09:00am 18.5 14.3 11.1 62 4.0 SSW 24 32 13 17 1018.1 1018.1 0.0
26/08:30am 17.6 12.7 11.3 66 3.4 SSW 28 37 15 20 1018.0 - 0.0
26/08:00am 16.5 12.5 11.7 73 2.6 SSW 24 30 13 16 1017.9 - 0.0
26/07:30am 15.4 12.3 11.7 78 2.0 SSW 19 28 10 15 1018.0 - 0.0
26/07:00am 13.8 10.9 10.9 83 1.5 SSW 17 20 9 11 1017.8 - 0.0
26/06:30am 13.0 10.3 10.5 85 1.3 SSW 15 17 8 9 1017.5 - 0.0
26/06:00am 11.2 8.7 9.8 91 0.7 SSW 13 17 7 9 1017.4 1017.4 0.0
26/05:30am 11.4 8.5 9.8 90 0.8 SSW 15 17 8 9 1016.9 - 0.0
26/05:00am 10.5 7.9 9.3 92 0.6 SSW 13 15 7 8 1016.6 - 0.0
26/04:30am 11.2 8.7 9.6 90 0.8 SSW 13 17 7 9 1016.5 - 0.0
26/04:00am 13.3 11.0 10.4 82 1.5 SSW 13 17 7 9 1016.6 - 0.0
26/03:30am 12.5 10.2 10.4 87 1.1 SSW 13 19 7 10 1016.8 - 0.0
26/03:00am 10.9 8.7 9.5 91 0.7 SSW 11 15 6 8 1017.0 1017.0 0.0
26/02:30am 11.9 9.6 10.3 90 0.8 SSW 13 15 7 8 1017.3 - 0.0
26/02:00am 12.6 10.6 10.3 86 1.2 SSW 11 15 6 8 1017.7 - 0.0
26/01:30am 12.8 11.3 10.5 86 1.2 SSW 9 11 5 6 1018.1 - 0.0
26/01:00am 14.0 12.1 10.6 80 1.8 S 11 13 6 7 1018.3 - 0.0
26/12:30am 12.5 10.1 10.2 86 1.2 SSW 13 17 7 9 1018.7 - 0.0
26/12:00am 12.7 10.0 10.2 85 1.3 SSW 15 17 8 9 1018.7 1018.7 0.0
 
Date/Time
EST
Temp
°C
App
Temp
°C
Dew
Point
Rel
Hum
%
Delta-T
°C
Wind Press
QNH
hPa
Press
MSL
hPa
Rain
since 9 am
mm
Dir
 
Spd
km/h
Gust
km/h
Spd
kts
Gust
kts
25/11:30pm 13.5 10.5 10.6 82 1.5 SSW 17 19 9 10 1018.8 - 0.0
25/11:00pm 13.8 10.8 10.7 81 1.6 SSW 17 19 9 10 1019.1 - 0.0
25/10:30pm 14.2 11.6 10.6 79 1.9 SSW 15 17 8 9 1019.3 - 0.0
25/10:00pm 13.9 11.6 10.6 80 1.7 SSW 13 17 7 9 1019.3 - 0.0
25/09:30pm 14.3 12.0 10.5 78 2.0 SSW 13 15 7 8 1019.5 - 0.0
25/09:00pm 16.3 14.4 10.6 69 3.0 S 11 15 6 8 1019.5 1019.5 0.0
25/08:30pm 15.9 14.8 10.6 71 2.8 S 7 11 4 6 1019.6 - 0.0
25/08:00pm 16.7 14.9 10.7 67 3.2 S 11 17 6 9 1019.7 - 0.0
25/07:30pm 17.4 15.6 10.7 65 3.6 SSE 11 19 6 10 1019.4 - 0.0
25/07:00pm 17.9 16.1 10.8 63 3.8 SSE 11 22 6 12 1019.3 - 0.0
25/06:30pm 18.3 16.5 10.7 61 4.1 SSE 11 17 6 9 1018.9 - 0.0
25/06:00pm 18.7 16.7 11.4 62 4.0 SSE 13 22 7 12 1018.7 1018.7 0.0
25/05:30pm 19.3 17.9 12.1 63 4.0 SE 11 20 6 11 1018.5 - 0.0
25/05:00pm 20.1 18.3 10.7 54 5.1 SE 11 17 6 9 1018.2 - 0.0
25/04:30pm 20.3 17.2 11.6 57 4.8 ESE 19 28 10 15 1017.9 - 0.0
25/04:00pm 20.4 17.3 12.2 59 4.6 ESE 20 35 11 19 1017.8 - 0.0
25/03:30pm 20.8 17.4 11.4 55 5.2 SE 20 32 11 17 1017.9 - 0.0
25/03:00pm 20.4 17.6 12.6 61 4.4 ESE 19 30 10 16 1017.7 1017.7 0.0
25/02:30pm 20.9 17.5 12.6 59 4.7 ESE 22 37 12 20 1017.9 - 0.0
25/02:00pm 20.8 17.7 11.6 55 5.1 ESE 19 32 10 17 1018.1 - 0.0
25/01:30pm 21.1 17.1 10.6 51 5.7 ESE 22 32 12 17 1018.3 - 0.0
25/01:00pm 21.5 19.0 9.6 46 6.4 SE 13 20 7 11 1018.4 - 0.0
25/12:30pm 22.3 18.9 10.4 47 6.5 SE 19 32 10 17 1018.9 - 0.0
25/12:00pm 22.5 19.5 10.7 47 6.5 SSE 17 28 9 15 1019.4 1019.4 0.0
25/11:30am 21.2 18.2 10.8 51 5.7 SE 17 28 9 15 1019.9 - 0.0
25/11:00am 21.3 17.8 10.2 49 6.0 SSE 19 32 10 17 1020.2 - 0.0
25/10:30am 20.2 17.4 11.3 56 4.9 S 17 28 9 15 1020.7 - 0.0
25/10:00am 20.3 17.1 11.8 58 4.7 S 20 37 11 20 1021.0 - 0.0
25/09:30am 19.6 16.3 11.6 60 4.4 S 20 35 11 19 1021.2 - 0.0
25/09:00am 18.6 14.8 12.3 67 3.5 SSW 24 30 13 16 1021.4 1021.4 0.0
25/08:30am 17.1 12.3 11.8 71 2.9 SSW 28 35 15 19 1021.3 - 0.0
25/08:00am 16.2 11.4 11.6 74 2.5 SSW 28 33 15 18 1021.2 - 0.0
25/07:30am 15.3 11.6 11.4 77 2.1 SSW 22 30 12 16 1021.0 - 0.0
25/07:00am 14.5 11.3 11.3 81 1.7 SSW 19 26 10 14 1020.7 - 0.0
25/06:30am 13.5 10.2 11.0 85 1.3 SSW 19 26 10 14 1020.7 - 0.0
25/06:00am 13.3 10.0 10.8 85 1.3 SSW 19 26 10 14 1020.4 1020.4 0.0
25/05:30am 13.1 10.5 10.8 86 1.2 SSW 15 19 8 10 1020.1 - 0.0
25/05:00am 13.0 9.7 10.9 87 1.1 SSW 19 26 10 14 1019.9 - 0.0
25/04:30am 13.6 10.7 11.1 85 1.3 SSW 17 22 9 12 1019.7 - 0.0
25/04:00am 13.6 10.4 11.1 85 1.3 SSW 19 24 10 13 1019.6 - 0.0
25/03:30am 13.7 10.4 11.0 84 1.4 SSW 19 28 10 15 1019.6 - 0.0
25/03:00am 13.5 10.5 10.8 84 1.4 SSW 17 24 9 13 1019.8 1019.8 0.0
25/02:30am 13.8 10.8 10.7 81 1.6 SSW 17 22 9 12 1020.0 - 0.0
25/02:00am 13.4 10.7 10.5 82 1.5 SSW 15 19 8 10 1020.4 - 0.0
25/01:30am 13.0 10.3 10.3 84 1.4 SSW 15 20 8 11 1020.6 - 0.0
25/01:00am 14.1 11.0 10.2 77 2.0 SSW 17 20 9 11 1021.1 - 0.0
25/12:30am 13.3 10.6 10.2 81 1.6 SSW 15 19 8 10 1021.4 - 0.0
25/12:00am 12.5 10.1 10.0 85 1.3 SSW 13 15 7 8 1021.6 1021.6 0.0
 
Date/Time
EST
Temp
°C
App
Temp
°C
Dew
Point
Rel
Hum
%
Delta-T
°C
Wind Press
QNH
hPa
Press
MSL
hPa
Rain
since 9 am
mm
Dir
 
Spd
km/h
Gust
km/h
Spd
kts
Gust
kts
24/11:30pm 13.8 11.1 10.3 79 1.8 SSW 15 19 8 10 1021.6 - 0.0
24/11:00pm 13.6 10.4 10.1 79 1.8 SSW 17 20 9 11 1021.7 - 0.0
24/10:30pm 14.3 11.5 10.0 75 2.2 SSW 15 20 8 11 1021.9 - 0.0
24/10:00pm 13.8 11.3 9.7 76 2.1 SSW 13 17 7 9 1022.3 - 0.0
24/09:30pm 14.6 12.1 9.7 72 2.5 SSW 13 15 7 8 1022.4 - 0.0
24/09:00pm 15.8 13.8 10.3 70 2.9 S 11 13 6 7 1022.5 1022.5 0.0
24/08:30pm 16.3 14.4 10.6 69 3.0 S 11 15 6 8 1022.4 - 0.0
24/08:00pm 16.5 14.3 10.9 69 3.0 S 13 19 7 10 1022.3 - 0.0
24/07:30pm 17.0 14.9 11.0 68 3.2 S 13 24 7 13 1022.2 - 0.0
24/07:00pm 18.1 16.1 11.5 65 3.6 SE 13 24 7 13 1021.9 - 0.0

Other Formats:

Comma delimited format used in spreadsheet applications
http://www.bom.gov.au/fwo/IDQ60801/IDQ60801.94578.axf

JavaScript Object Notation format (JSON) in row-major order
http://www.bom.gov.au/fwo/IDQ60801/IDQ60801.94578.json